Time;durP1;ratioP1;P1;durP2;ratioP2;P2;SDS_P1;SDS_P2;PMS_P1;PMS_P2;Temp;Humidity;BMP_temperature;BMP_pressure;BME280_temperature;BME280_humidity;BME280_pressure;Samples;Min_cycle;Max_cycle;Signal;HPM_P1;HPM_P2
2021/03/21 00:00:12;;;;;;;8.70;5.53;;;1.80;57.90;;;;;;5017427;28;20037;-74
2021/03/21 00:02:38;;;;;;;8.65;5.38;;;1.80;58.20;;;;;;5017203;28;20419;-76
2021/03/21 00:05:04;;;;;;;9.73;5.47;;;1.80;58.70;;;;;;5017437;28;20104;-75
2021/03/21 00:07:30;;;;;;;10.95;5.45;;;1.80;59.00;;;;;;5017833;28;20025;-74
2021/03/21 00:09:55;;;;;;;9.07;5.47;;;1.80;59.00;;;;;;5034859;28;20444;-75
2021/03/21 00:12:21;;;;;;;9.55;5.00;;;1.90;59.20;;;;;;5017635;28;20058;-74
2021/03/21 00:14:46;;;;;;;11.30;5.82;;;1.90;59.40;;;;;;5017524;28;20025;-74
2021/03/21 00:17:12;;;;;;;8.07;4.75;;;1.90;59.40;;;;;;5035195;28;20029;-74
2021/03/21 00:19:37;;;;;;;8.77;5.53;;;1.90;59.50;;;;;;5035105;28;20386;-75
2021/03/21 00:22:03;;;;;;;10.73;5.78;;;1.90;59.70;;;;;;5035068;28;20037;-75
2021/03/21 00:24:29;;;;;;;10.77;5.28;;;1.80;59.40;;;;;;5017187;28;20132;-74
2021/03/21 00:26:54;;;;;;;8.52;5.43;;;1.90;59.40;;;;;;5017185;28;20548;-74
2021/03/21 00:29:20;;;;;;;10.07;5.78;;;1.80;59.20;;;;;;5017376;28;20025;-74
2021/03/21 00:31:46;;;;;;;8.63;5.82;;;1.80;59.30;;;;;;5035009;28;20364;-74
2021/03/21 00:34:11;;;;;;;8.95;5.80;;;1.80;59.30;;;;;;5016939;28;20072;-75
2021/03/21 00:36:37;;;;;;;12.85;5.68;;;1.80;59.10;;;;;;5017091;28;20072;-74
2021/03/21 00:39:04;;;;;;;12.02;6.65;;;1.80;59.00;;;;;;5034723;28;20036;-75
2021/03/21 00:41:30;;;;;;;9.05;5.90;;;1.80;58.80;;;;;;5016959;28;20025;-74
2021/03/21 00:43:57;;;;;;;10.00;6.72;;;1.80;58.70;;;;;;5034474;28;20033;-74
2021/03/21 00:46:24;;;;;;;10.40;5.95;;;1.80;58.20;;;;;;5033722;28;20029;-75
2021/03/21 00:48:50;;;;;;;12.32;6.05;;;1.60;57.30;;;;;;5016791;28;20115;-75
2021/03/21 00:51:17;;;;;;;13.80;7.13;;;1.50;57.50;;;;;;5034592;28;20430;-75
2021/03/21 00:53:43;;;;;;;11.52;7.03;;;1.40;57.40;;;;;;5016726;28;20100;-75
2021/03/21 00:56:16;;;;;;;16.85;6.88;;;1.20;57.70;;;;;;5034311;28;20032;-74
2021/03/21 00:58:42;;;;;;;15.60;6.82;;;1.20;57.70;;;;;;5016631;28;20025;-74
2021/03/21 01:01:07;;;;;;;12.73;6.10;;;1.20;57.70;;;;;;5016552;28;20036;-75
2021/03/21 01:03:33;;;;;;;11.77;7.05;;;1.30;57.00;;;;;;5034129;28;20053;-74
2021/03/21 01:06:05;;;;;;;10.57;6.68;;;1.20;57.40;;;;;;5034291;28;20025;-74
2021/03/21 01:08:34;;;;;;;12.18;6.53;;;1.10;57.80;;;;;;5000121;28;20053;-74
2021/03/21 01:11:18;;;;;;;20.08;7.78;;;1.10;57.80;;;;;;5016275;28;20029;-74
2021/03/21 01:13:44;;;;;;;11.20;6.07;;;1.20;57.70;;;;;;5033987;28;20049;-74
2021/03/21 01:16:19;;;;;;;12.40;6.70;;;1.20;57.60;;;;;;5016126;28;20022;-74
2021/03/21 01:18:44;;;;;;;14.18;6.60;;;1.20;57.40;;;;;;5033805;28;20104;-74
2021/03/21 01:21:11;;;;;;;14.23;6.32;;;1.30;57.70;;;;;;5033434;28;20048;-74
2021/03/21 01:23:38;;;;;;;13.73;6.30;;;1.30;57.70;;;;;;5015584;28;20041;-74
2021/03/21 01:26:04;;;;;;;11.00;6.28;;;1.30;57.90;;;;;;5033323;28;20055;-74
2021/03/21 01:28:33;;;;;;;10.55;5.85;;;1.40;58.00;;;;;;5033369;28;20036;-74
2021/03/21 01:31:02;;;;;;;11.48;6.75;;;1.50;58.10;;;;;;5033455;28;20021;-74
2021/03/21 01:33:31;;;;;;;11.93;6.05;;;1.60;58.40;;;;;;5033411;28;20032;-75
2021/03/21 01:35:57;;;;;;;9.85;5.63;;;1.60;58.60;;;;;;5015712;28;20033;-75
2021/03/21 01:38:23;;;;;;;9.65;5.30;;;1.60;58.80;;;;;;5015849;28;20029;-74
2021/03/21 01:40:54;;;;;;;11.68;5.68;;;1.70;59.00;;;;;;5015667;28;20501;-75
2021/03/21 01:43:30;;;;;;;10.18;5.43;;;1.70;59.00;;;;;;5015502;28;20030;-77
2021/03/21 01:45:56;;;;;;;7.32;4.70;;;1.70;59.00;;;;;;5033536;28;20056;-77
2021/03/21 01:48:32;;;;;;;13.05;5.97;;;1.70;59.00;;;;;;5015661;28;20025;-75
2021/03/21 01:51:03;;;;;;;16.23;7.53;;;1.70;59.00;;;;;;5033036;28;20025;-76
2021/03/21 01:53:32;;;;;;;21.90;8.65;;;1.70;59.20;;;;;;5033069;28;20029;-76
2021/03/21 01:56:00;;;;;;;16.15;7.65;;;1.70;59.80;;;;;;5032917;28;20017;-76
2021/03/21 01:58:29;;;;;;;15.63;7.35;;;1.70;59.90;;;;;;5032889;28;20108;-76
2021/03/21 02:00:58;;;;;;;13.68;7.72;;;1.70;59.80;;;;;;5015248;28;20079;-76
2021/03/21 02:03:24;;;;;;;13.88;7.50;;;1.70;60.50;;;;;;5015132;28;20502;-76
2021/03/21 02:05:54;;;;;;;12.32;6.60;;;1.70;60.50;;;;;;4998929;28;20471;-76
2021/03/21 02:08:38;;;;;;;13.40;7.15;;;1.70;60.40;;;;;;5032763;28;20029;-76
2021/03/21 02:11:38;;;;;;;13.48;6.68;;;1.80;60.00;;;;;;5014999;28;20363;-76
2021/03/21 02:14:31;;;;;;;13.38;7.20;;;1.80;59.30;;;;;;5032568;28;20029;-76
2021/03/21 02:17:12;;;;;;;16.65;7.60;;;1.70;59.30;;;;;;5032856;28;20044;-77
2021/03/21 02:20:13;;;;;;;16.83;6.78;;;1.80;59.40;;;;;;5014954;28;20025;-76
2021/03/21 02:22:58;;;;;;;12.15;6.40;;;1.70;58.90;;;;;;5011283;28;20029;-77
2021/03/21 02:25:42;;;;;;;12.73;7.10;;;1.70;58.50;;;;;;5015334;28;20044;-76
2021/03/21 02:28:43;;;;;;;15.18;7.40;;;1.70;58.20;;;;;;5014910;28;20072;-76
2021/03/21 02:31:27;;;;;;;12.75;6.97;;;1.60;57.90;;;;;;4991452;28;20029;-75
2021/03/21 02:34:04;;;;;;;17.05;7.63;;;1.60;57.50;;;;;;5014897;28;20367;-75
2021/03/21 02:36:46;;;;;;;11.40;5.90;;;1.50;57.60;;;;;;5032633;28;20025;-76
2021/03/21 02:39:31;;;;;;;11.30;6.00;;;1.40;57.10;;;;;;5032702;28;20460;-77
2021/03/21 02:42:26;;;;;;;11.60;5.82;;;1.50;56.90;;;;;;5014626;28;20112;-76
2021/03/21 02:45:20;;;;;;;10.10;5.75;;;1.50;56.90;;;;;;4996640;28;20132;-77
2021/03/21 02:47:49;;;;;;;10.32;5.97;;;1.60;57.20;;;;;;5030159;28;20482;-76
2021/03/21 02:50:24;;;;;;;9.43;5.55;;;1.60;57.90;;;;;;5032476;28;20621;-75
2021/03/21 02:52:56;;;;;;;;;;;1.70;58.40;;;;;;5032899;28;20068;-76
2021/03/21 02:55:37;;;;;;;10.93;4.85;;;1.70;58.80;;;;;;5032487;28;19984;-76
2021/03/21 02:58:12;;;;;;;9.32;4.93;;;1.70;58.90;;;;;;5032456;28;20516;-76
2021/03/21 03:00:45;;;;;;;10.43;5.10;;;1.70;59.10;;;;;;5032344;28;20031;-76
2021/03/21 03:03:15;;;;;;;9.00;4.97;;;1.70;58.90;;;;;;5032133;28;20049;-76
2021/03/21 03:05:49;;;;;;;9.65;5.57;;;1.70;58.70;;;;;;5032473;28;20370;-75
2021/03/21 03:08:32;;;;;;;12.30;5.85;;;1.70;58.40;;;;;;5014921;28;20048;-75
2021/03/21 03:11:05;;;;;;;11.43;6.43;;;1.70;58.40;;;;;;5036065;28;20056;-74
2021/03/21 03:13:48;;;;;;;12.32;5.25;;;1.70;58.80;;;;;;5018663;28;20394;-75
2021/03/21 03:16:38;;;;;;;11.43;5.95;;;1.70;58.90;;;;;;5036440;28;20036;-76
2021/03/21 03:19:28;;;;;;;10.13;5.70;;;1.80;58.60;;;;;;5036154;28;20021;-75
2021/03/21 03:22:14;;;;;;;8.77;5.07;;;1.80;58.30;;;;;;5036044;28;20025;-75
2021/03/21 03:24:54;;;;;;;;;;;1.80;58.30;;;;;;5018754;28;20049;-75
2021/03/21 03:27:34;;;;;;;8.88;4.63;;;1.80;58.20;;;;;;5036196;28;19913;-76
2021/03/21 03:30:19;;;;;;;11.18;5.75;;;1.90;57.30;;;;;;5018127;28;20478;-75
2021/03/21 03:32:45;;;;;;;9.25;5.13;;;1.90;56.30;;;;;;5036153;28;20018;-75
2021/03/21 03:35:14;;;;;;;8.63;5.22;;;1.90;55.60;;;;;;5018249;28;20025;-75
2021/03/21 03:37:40;;;;;;;12.40;5.07;;;1.90;55.50;;;;;;5017902;28;20481;-75
2021/03/21 03:40:08;;;;;;;8.45;4.68;;;1.90;55.40;;;;;;5018368;28;20116;-76
2021/03/21 03:43:23;;;;;;;8.63;4.75;;;1.80;54.80;;;;;;5018452;28;20075;-75
2021/03/21 03:46:11;;;;;;;8.30;5.13;;;1.90;54.90;;;;;;5008361;28;20077;-76
2021/03/21 03:48:48;;;;;;;11.30;5.82;;;1.80;55.40;;;;;;5018424;28;20375;-76
2021/03/21 03:51:43;;;;;;;12.80;5.30;;;1.80;55.50;;;;;;5043640;28;20052;-75
2021/03/21 03:54:18;;;;;;;9.65;5.22;;;1.80;55.70;;;;;;5018326;28;20028;-75
2021/03/21 03:56:54;;;;;;;9.45;5.10;;;1.70;55.70;;;;;;5018663;28;20021;-76
2021/03/21 03:59:51;;;;;;;7.60;4.70;;;1.70;56.20;;;;;;5019369;28;20033;-76
2021/03/21 04:02:28;;;;;;;10.98;4.63;;;1.70;56.50;;;;;;5035559;28;20096;-76
2021/03/21 04:05:03;;;;;;;9.13;5.53;;;1.70;56.70;;;;;;5017437;28;20096;-75
2021/03/21 04:07:41;;;;;;;;;;;1.80;57.00;;;;;;5035577;28;20026;-73
2021/03/21 04:10:10;;;;;;;8.55;4.90;;;1.80;57.60;;;;;;5035112;28;19916;-73
2021/03/21 04:13:04;;;;;;;10.35;5.40;;;1.80;57.90;;;;;;5035318;28;20057;-75
2021/03/21 04:15:35;;;;;;;7.43;5.05;;;1.90;58.20;;;;;;5015520;28;20532;-74
2021/03/21 04:18:20;;;;;;;11.20;5.50;;;1.90;58.30;;;;;;5016584;28;20083;-74
2021/03/21 04:20:54;;;;;;;6.82;4.72;;;1.90;58.50;;;;;;5017440;28;20028;-74
2021/03/21 04:23:29;;;;;;;7.53;4.85;;;1.90;58.80;;;;;;5017630;28;20060;-73
2021/03/21 04:26:03;;;;;;;9.38;5.70;;;1.90;59.10;;;;;;5017624;28;20021;-75
2021/03/21 04:28:40;;;;;;;8.25;4.97;;;1.90;59.50;;;;;;5019640;28;20035;-74
2021/03/21 04:31:09;;;;;;;8.85;5.18;;;1.90;59.90;;;;;;5039599;28;20021;-73
2021/03/21 04:33:57;;;;;;;10.00;5.00;;;1.90;60.20;;;;;;5017633;28;20057;-75
2021/03/21 04:36:30;;;;;;;10.73;5.85;;;1.90;60.30;;;;;;5019035;28;20075;-74
2021/03/21 04:39:07;;;;;;;8.73;5.07;;;1.90;60.40;;;;;;5017145;28;20045;-76
2021/03/21 04:41:53;;;;;;;8.70;5.13;;;1.90;60.40;;;;;;5016812;28;20025;-74
2021/03/21 04:44:44;;;;;;;9.68;4.97;;;1.90;60.30;;;;;;5016661;28;20061;-75
2021/03/21 04:47:27;;;;;;;8.85;5.15;;;1.90;60.30;;;;;;5034477;28;20474;-78
2021/03/21 04:49:57;;;;;;;7.85;5.03;;;1.90;60.20;;;;;;5016719;28;20087;-77
2021/03/21 04:52:34;;;;;;;8.65;4.82;;;2.00;60.10;;;;;;5034485;28;20038;-77
2021/03/21 04:55:05;;;;;;;9.00;5.20;;;2.00;60.00;;;;;;5034443;28;20381;-77
2021/03/21 04:57:39;;;;;;;9.18;5.18;;;1.90;60.10;;;;;;5017097;28;20485;-77
2021/03/21 05:00:15;;;;;;;10.73;5.47;;;1.90;60.20;;;;;;5016716;28;20029;-77
2021/03/21 05:02:46;;;;;;;7.80;4.75;;;1.90;60.40;;;;;;5016856;28;20025;-77
2021/03/21 05:05:27;;;;;;;9.23;5.60;;;1.90;60.70;;;;;;5034210;28;20537;-75
2021/03/21 05:08:05;;;;;;;8.30;4.90;;;1.90;60.80;;;;;;5016305;28;20049;-76
2021/03/21 05:10:39;;;;;;;8.70;4.57;;;1.90;60.90;;;;;;5034122;28;20030;-76
2021/03/21 05:13:49;;;;;;;17.10;7.78;;;1.90;61.00;;;;;;5016272;28;20474;-76
2021/03/21 05:16:39;;;;;;;7.97;4.57;;;1.90;61.00;;;;;;4996946;28;20402;-75
2021/03/21 05:19:13;;;;;;;7.70;4.47;;;2.00;61.10;;;;;;5016145;28;20108;-76
2021/03/21 05:21:48;;;;;;;6.93;4.00;;;1.90;61.40;;;;;;5033982;28;20057;-76
2021/03/21 05:24:23;;;;;;;8.90;5.50;;;1.90;61.60;;;;;;5033794;28;20068;-77
2021/03/21 05:27:17;;;;;;;9.15;5.68;;;1.90;61.80;;;;;;5033849;28;20113;-76
2021/03/21 05:30:01;;;;;;;10.82;5.40;;;1.90;62.10;;;;;;5013497;28;20029;-77
2021/03/21 05:32:27;;;;;;;15.10;6.82;;;1.80;62.20;;;;;;5015465;28;20042;-76
2021/03/21 05:34:56;;;;;;;12.15;6.60;;;1.80;62.60;;;;;;5033426;28;20037;-76
2021/03/21 05:37:53;;;;;;;12.18;6.13;;;1.80;62.80;;;;;;5016130;28;20025;-77
2021/03/21 05:40:51;;;;;;;15.15;6.25;;;1.80;63.00;;;;;;5015969;28;20028;-74
2021/03/21 05:43:49;;;;;;;14.57;6.75;;;1.80;63.10;;;;;;5009007;28;20385;-75
2021/03/21 05:47:00;;;;;;;13.15;6.47;;;1.90;63.00;;;;;;5033402;28;20052;-74
2021/03/21 05:49:35;;;;;;;9.27;4.85;;;1.90;62.30;;;;;;5010679;28;20029;-75
2021/03/21 05:52:12;;;;;;;11.93;5.80;;;2.00;62.00;;;;;;5033244;28;20022;-75
2021/03/21 05:54:47;;;;;;;12.13;5.93;;;2.00;61.90;;;;;;5033179;28;20032;-76
2021/03/21 05:57:50;;;;;;;11.85;5.47;;;2.00;61.70;;;;;;5015588;28;20029;-76
2021/03/21 06:00:39;;;;;;;11.73;5.10;;;2.10;61.50;;;;;;5015575;28;20029;-75
2021/03/21 06:03:23;;;;;;;9.00;5.10;;;2.10;61.00;;;;;;5032959;28;20057;-75
2021/03/21 06:06:07;;;;;;;8.95;4.85;;;2.10;60.50;;;;;;5033206;28;20025;-75
2021/03/21 06:08:54;;;;;;;9.88;4.78;;;2.20;59.80;;;;;;5033128;28;20017;-77
2021/03/21 06:11:48;;;;;;;6.82;4.20;;;2.20;59.00;;;;;;5015243;28;20026;-75
2021/03/21 06:14:47;;;;;;;10.35;4.82;;;2.20;58.20;;;;;;5032844;28;20021;-76
2021/03/21 06:17:42;;;;;;;10.48;4.90;;;2.20;57.50;;;;;;5015196;28;20508;-77
2021/03/21 06:20:29;;;;;;;11.02;6.15;;;2.20;57.40;;;;;;5015144;28;20022;-76
2021/03/21 06:23:36;;;;;;;8.48;5.07;;;2.20;57.40;;;;;;5032797;28;20025;-75
2021/03/21 06:26:13;;;;;;;9.05;5.15;;;2.10;57.60;;;;;;4999987;28;20123;-76
2021/03/21 06:28:57;;;;;;;11.73;6.63;;;2.20;58.30;;;;;;5032948;28;20025;-76
2021/03/21 06:31:55;;;;;;;10.10;5.95;;;2.20;57.50;;;;;;5032702;28;20108;-75
2021/03/21 06:34:44;;;;;;;10.35;4.97;;;2.20;57.70;;;;;;5032792;28;20025;-75
2021/03/21 06:37:29;;;;;;;7.93;4.55;;;2.20;58.00;;;;;;5023647;28;20034;-75
2021/03/21 06:40:06;;;;;;;13.07;6.03;;;2.20;58.20;;;;;;5015177;28;20025;-74
2021/03/21 06:42:53;;;;;;;11.88;5.60;;;2.20;58.60;;;;;;5032799;28;20057;-74
2021/03/21 06:45:37;;;;;;;7.22;4.47;;;2.20;57.90;;;;;;5035491;28;20385;-74
2021/03/21 06:48:28;;;;;;;7.50;4.47;;;2.20;57.70;;;;;;5018875;28;20386;-75
2021/03/21 06:51:14;;;;;;;8.23;4.80;;;2.30;57.70;;;;;;5036552;28;20036;-74
2021/03/21 06:53:57;;;;;;;8.57;5.25;;;2.40;56.80;;;;;;5018796;28;20018;-75
2021/03/21 06:56:31;;;;;;;7.95;4.45;;;2.40;56.20;;;;;;5046471;28;20424;-75
2021/03/21 06:59:09;;;;;;;10.25;5.78;;;2.40;56.20;;;;;;5035901;28;20005;-76
2021/03/21 07:01:42;;;;;;;10.50;6.35;;;2.50;56.00;;;;;;5038252;28;20053;-74
2021/03/21 07:04:29;;;;;;;11.73;6.40;;;2.50;55.80;;;;;;5021398;28;20140;-75
2021/03/21 07:07:28;;;;;;;10.43;5.65;;;2.60;55.30;;;;;;5037466;28;20040;-76
2021/03/21 07:10:18;;;;;;;9.55;4.47;;;2.70;54.80;;;;;;5036943;28;20096;-77
2021/03/21 07:13:24;;;;;;;7.03;4.68;;;2.80;54.40;;;;;;5018846;28;20116;-77
2021/03/21 07:16:18;;;;;;;6.35;4.00;;;2.80;54.20;;;;;;5018560;28;20034;-77
2021/03/21 07:19:05;;;;;;;8.45;4.30;;;3.00;54.40;;;;;;5018574;28;20021;-77
2021/03/21 07:22:22;;;;;;;6.18;4.05;;;3.00;54.50;;;;;;5018492;28;20025;-77
2021/03/21 07:25:16;;;;;;;7.40;4.20;;;3.00;54.20;;;;;;4996492;28;20048;-77
2021/03/21 07:28:06;;;;;;;7.47;3.95;;;3.10;53.90;;;;;;5018337;28;20029;-77
2021/03/21 07:30:51;;;;;;;5.72;3.78;;;3.10;53.40;;;;;;5036026;28;20079;-76
2021/03/21 07:33:30;;;;;;;6.85;3.80;;;3.10;51.80;;;;;;5018193;28;20386;-77
2021/03/21 07:35:58;;;;;;;5.30;3.80;;;3.20;50.80;;;;;;5017837;28;20030;-77
2021/03/21 07:38:51;;;;;;;6.50;3.78;;;3.20;50.60;;;;;;5018230;28;20029;-77
2021/03/21 07:41:29;;;;;;;7.57;4.10;;;3.20;50.40;;;;;;5018217;28;20063;-77
2021/03/21 07:44:01;;;;;;;7.20;3.65;;;3.20;49.70;;;;;;5035580;28;20494;-77
2021/03/21 07:46:40;;;;;;;7.85;3.78;;;3.20;49.10;;;;;;5017812;28;20072;-77
2021/03/21 07:49:38;;;;;;;6.03;3.55;;;3.30;48.90;;;;;;5035748;28;20033;-76
2021/03/21 07:52:33;;;;;;;6.75;3.72;;;3.30;49.00;;;;;;4977739;28;20034;-77
2021/03/21 07:55:05;;;;;;;10.35;4.03;;;3.30;48.80;;;;;;4993786;28;20044;-77
2021/03/21 07:57:40;;;;;;;6.72;3.80;;;3.30;48.40;;;;;;4977688;28;20034;-77
2021/03/21 08:00:09;;;;;;;4.43;2.33;;;3.40;47.80;;;;;;4993843;28;20566;-75
2021/03/21 08:02:34;;;;;;;9.93;3.22;;;3.40;47.30;;;;;;4977694;28;20067;-75
2021/03/21 08:05:17;;;;;;;6.15;3.03;;;3.50;47.00;;;;;;4977246;28;20381;-75
2021/03/21 08:07:47;;;;;;;6.10;3.13;;;3.60;46.50;;;;;;4977566;28;20490;-75
2021/03/21 08:10:25;;;;;;;6.90;3.53;;;3.60;46.70;;;;;;4993610;28;20054;-76
2021/03/21 08:13:22;;;;;;;5.55;3.33;;;3.60;45.60;;;;;;4977402;28;20039;-76
2021/03/21 08:15:48;;;;;;;7.60;3.58;;;3.60;44.90;;;;;;4978585;28;20502;-76
2021/03/21 08:18:23;;;;;;;10.80;4.13;;;3.40;43.50;;;;;;4993649;28;20069;-75
2021/03/21 08:20:57;;;;;;;9.60;4.60;;;3.30;43.10;;;;;;4993549;28;20041;-76
2021/03/21 08:23:28;;;;;;;5.50;3.17;;;3.30;43.00;;;;;;5004360;28;20478;-76
2021/03/21 08:25:58;;;;;;;8.80;3.92;;;3.20;42.60;;;;;;5017084;28;20037;-76
2021/03/21 08:28:35;;;;;;;6.57;3.42;;;3.20;42.70;;;;;;5034926;28;20444;-75
2021/03/21 08:31:02;;;;;;;5.93;2.95;;;3.20;42.90;;;;;;5017148;28;20041;-76
2021/03/21 08:33:42;;;;;;;8.23;3.60;;;3.00;42.60;;;;;;5034893;28;20025;-76
2021/03/21 08:36:27;;;;;;;6.82;3.40;;;2.90;42.50;;;;;;5034942;28;20036;-75
2021/03/21 08:39:13;;;;;;;5.28;3.03;;;2.80;42.70;;;;;;5013843;28;20024;-76
2021/03/21 08:42:06;;;;;;;5.95;3.20;;;2.80;42.60;;;;;;5016922;28;20029;-75
2021/03/21 08:44:44;;;;;;;5.57;2.92;;;2.90;42.50;;;;;;5031565;28;20045;-76
2021/03/21 08:47:36;;;;;;;7.47;2.67;;;2.90;42.50;;;;;;5034442;28;20504;-77
2021/03/21 08:50:04;;;;;;;6.13;3.40;;;3.00;42.70;;;;;;5030782;28;20544;-75
2021/03/21 08:52:44;;;;;;;6.95;2.92;;;3.00;42.20;;;;;;5034834;28;20382;-74
2021/03/21 08:55:39;;;;;;;8.80;3.00;;;3.10;42.30;;;;;;5034380;28;20367;-74
2021/03/21 08:58:37;;;;;;;5.55;3.40;;;3.10;42.50;;;;;;5017067;28;20065;-73
2021/03/21 09:01:17;;;;;;;7.93;4.03;;;3.10;43.10;;;;;;4973974;28;20037;-74
2021/03/21 09:03:43;;;;;;;6.95;3.70;;;3.10;43.80;;;;;;5016203;28;20475;-74
2021/03/21 09:06:26;;;;;;;5.90;3.15;;;3.20;43.80;;;;;;5033603;28;20104;-74
2021/03/21 09:08:51;;;;;;;7.13;3.10;;;3.30;43.90;;;;;;5015897;28;20045;-74
2021/03/21 09:11:34;;;;;;;6.40;3.42;;;3.30;43.20;;;;;;5033974;28;20060;-75
2021/03/21 09:14:04;;;;;;;7.50;3.00;;;3.30;43.00;;;;;;5033880;28;20029;-73
2021/03/21 09:16:30;;;;;;;6.60;3.25;;;3.30;42.90;;;;;;5015896;28;20486;-73
2021/03/21 09:19:17;;;;;;;6.75;3.25;;;3.20;43.20;;;;;;5033636;28;20048;-76
2021/03/21 09:21:48;;;;;;;6.88;3.05;;;3.20;44.00;;;;;;5015851;28;20032;-77
2021/03/21 09:24:23;;;;;;;5.25;3.00;;;3.70;60.70;;;;;;5015499;28;20038;-77
2021/03/21 09:27:13;;;;;;;7.13;2.85;;;4.30;61.30;;;;;;5033446;28;20021;-77
2021/03/21 09:32:20;;;;;;;5.07;2.78;;;5.20;56.00;;;;;;5354085;23;20120;-77
2021/03/21 09:35:08;;;;;;;5.85;3.20;;;5.30;53.20;;;;;;5020804;23;20107;-77
2021/03/21 09:37:37;;;;;;;5.13;3.13;;;5.40;55.90;;;;;;5015628;28;20021;-77
2021/03/21 09:40:10;;;;;;;5.70;3.03;;;5.70;52.80;;;;;;5033494;28;20083;-77
2021/03/21 09:42:36;;;;;;;6.18;3.35;;;5.90;49.60;;;;;;5033438;28;20028;-77
2021/03/21 09:45:03;;;;;;;7.28;3.33;;;6.10;48.60;;;;;;5033267;28;20041;-76
2021/03/21 09:47:46;;;;;;;4.13;2.97;;;6.20;46.40;;;;;;5033372;28;20409;-77
2021/03/21 09:50:37;;;;;;;6.35;3.00;;;6.20;46.40;;;;;;5033486;28;20095;-77
2021/03/21 09:53:02;;;;;;;5.78;3.17;;;6.40;48.70;;;;;;5033383;28;20076;-77
2021/03/21 09:55:48;;;;;;;4.05;2.80;;;6.60;48.50;;;;;;5033456;28;20017;-78
2021/03/21 09:58:42;;;;;;;6.45;3.13;;;6.60;45.90;;;;;;5019105;28;20116;-76
2021/03/21 10:01:14;;;;;;;5.05;2.80;;;6.60;45.60;;;;;;5033107;28;20066;-77
2021/03/21 10:03:40;;;;;;;5.57;3.00;;;6.40;43.50;;;;;;5032961;28;20021;-77
2021/03/21 10:06:32;;;;;;;5.28;3.08;;;6.40;43.20;;;;;;5032046;28;20679;-76
2021/03/21 10:09:12;;;;;;;7.32;3.47;;;6.50;43.30;;;;;;5029030;28;20026;-75
2021/03/21 10:11:40;;;;;;;7.30;3.63;;;6.60;42.20;;;;;;5030145;28;20381;-77
2021/03/21 10:23:07;;;;;;;4.65;3.08;;;6.60;42.00;;;;;;5287357;23;20080;-79
2021/03/21 10:25:39;;;;;;;7.10;4.05;;;6.60;42.10;;;;;;5014497;28;20025;-78
2021/03/21 10:28:29;;;;;;;8.18;4.57;;;6.70;42.90;;;;;;5032132;28;20032;-78
2021/03/21 10:31:23;;;;;;;7.90;3.67;;;6.70;41.10;;;;;;5027122;28;20017;-79
2021/03/21 10:34:14;;;;;;;7.75;4.20;;;6.40;40.60;;;;;;5031770;28;20637;-78
2021/03/21 10:36:40;;;;;;;8.13;3.85;;;5.80;39.50;;;;;;5012802;28;20025;-79
2021/03/21 10:39:08;;;;;;;6.13;3.50;;;5.90;41.10;;;;;;5031991;28;20039;-78
2021/03/21 10:42:15;;;;;;;6.60;3.25;;;6.20;43.10;;;;;;5032419;28;20071;-78
2021/03/21 10:44:41;;;;;;;7.68;4.28;;;6.30;43.50;;;;;;5032656;28;20069;-77
2021/03/21 10:47:11;;;;;;;7.18;4.45;;;6.20;41.40;;;;;;5032397;28;20493;-76
2021/03/21 10:49:51;;;;;;;7.35;4.47;;;6.00;40.30;;;;;;5032600;28;20033;-78
2021/03/21 10:52:28;;;;;;;6.63;4.32;;;5.60;40.80;;;;;;5032493;28;20030;-78
2021/03/21 10:55:21;;;;;;;7.80;4.90;;;5.50;40.60;;;;;;5032507;28;20017;-76
2021/03/21 10:57:54;;;;;;;7.30;4.47;;;5.50;40.70;;;;;;5032466;28;20374;-76
2021/03/21 11:00:28;;;;;;;8.35;4.65;;;5.50;41.00;;;;;;5032501;28;20017;-79
2021/03/21 11:03:00;;;;;;;8.77;5.53;;;5.30;40.90;;;;;;5032308;28;20021;-78
2021/03/21 11:05:42;;;;;;;12.35;4.85;;;5.10;41.30;;;;;;5032474;28;20056;-76
2021/03/21 11:08:13;;;;;;;8.15;5.10;;;4.90;41.40;;;;;;5032522;28;20570;-76
2021/03/21 11:10:50;;;;;;;8.30;4.28;;;4.70;42.10;;;;;;5032546;28;20112;-75
2021/03/21 11:13:33;;;;;;;9.93;4.82;;;4.70;42.20;;;;;;5032514;28;20030;-78
2021/03/21 11:16:10;;;;;;;6.93;4.07;;;4.60;42.90;;;;;;5032263;28;20490;-77
2021/03/21 11:18:37;;;;;;;7.00;4.78;;;4.10;43.60;;;;;;5014566;28;20525;-75
2021/03/21 11:21:09;;;;;;;11.30;4.32;;;4.00;44.00;;;;;;5032307;28;20386;-76
2021/03/21 11:23:58;;;;;;;8.13;4.90;;;3.90;44.70;;;;;;5032184;28;20057;-76
2021/03/21 11:26:33;;;;;;;10.30;4.78;;;4.10;45.20;;;;;;5032268;28;20021;-75
2021/03/21 11:29:01;;;;;;;10.27;4.75;;;4.20;45.30;;;;;;5032967;28;20018;-79
2021/03/21 11:31:37;;;;;;;9.18;4.82;;;4.30;45.40;;;;;;5021540;28;20025;-77
2021/03/21 11:34:26;;;;;;;8.13;4.47;;;4.30;45.40;;;;;;5023180;28;20120;-77
2021/03/21 11:37:21;;;;;;;14.30;6.63;;;4.30;46.20;;;;;;5034406;28;20014;-76
2021/03/21 11:39:55;;;;;;;11.60;5.50;;;4.40;46.30;;;;;;4996904;28;20068;-77
2021/03/21 11:42:33;;;;;;;9.40;4.97;;;4.40;46.30;;;;;;5017870;28;20026;-80
2021/03/21 11:45:28;;;;;;;8.65;4.68;;;4.40;46.60;;;;;;5035497;28;20037;-75
2021/03/21 11:48:09;;;;;;;8.32;4.53;;;4.40;46.80;;;;;;5017524;28;20021;-79
2021/03/21 11:50:38;;;;;;;9.20;5.40;;;4.40;47.30;;;;;;5035458;28;20022;-79
2021/03/21 11:53:10;;;;;;;10.75;5.63;;;4.30;48.20;;;;;;5017699;28;20037;-74
2021/03/21 11:55:40;;;;;;;7.53;5.30;;;4.00;49.50;;;;;;5035563;28;20018;-74
2021/03/21 11:58:21;;;;;;;12.27;5.35;;;3.90;50.80;;;;;;5035317;28;20099;-78
2021/03/21 12:00:55;;;;;;;12.48;5.93;;;3.90;51.70;;;;;;5017660;28;20359;-77
2021/03/21 12:03:23;;;;;;;8.95;5.63;;;3.90;52.50;;;;;;5017541;28;20040;-77
2021/03/21 12:06:03;;;;;;;9.52;5.75;;;4.00;52.90;;;;;;5017303;28;20026;-75
2021/03/21 12:08:38;;;;;;;10.00;5.75;;;4.00;54.50;;;;;;5017416;28;20429;-78
2021/03/21 12:11:24;;;;;;;11.10;5.22;;;4.00;55.40;;;;;;5017172;28;20473;-72
2021/03/21 12:13:51;;;;;;;12.48;5.63;;;4.10;56.10;;;;;;5035078;28;20036;-72
2021/03/21 12:16:41;;;;;;;11.57;6.20;;;4.00;55.80;;;;;;5034924;28;20033;-74
2021/03/21 12:19:23;;;;;;;12.52;6.32;;;4.00;56.00;;;;;;5016972;28;20397;-73
2021/03/21 12:21:52;;;;;;;13.38;6.68;;;3.90;57.00;;;;;;5016838;28;20108;-78
2021/03/21 12:24:21;;;;;;;9.77;5.93;;;3.90;56.60;;;;;;5017131;28;20037;-74
2021/03/21 12:27:05;;;;;;;11.27;6.57;;;4.00;56.60;;;;;;5034702;28;20028;-73
2021/03/21 12:29:39;;;;;;;13.38;6.57;;;4.00;56.70;;;;;;5034665;28;20044;-74
2021/03/21 12:32:26;;;;;;;11.27;6.75;;;4.10;57.40;;;;;;5034752;28;20443;-73
2021/03/21 12:34:53;;;;;;;10.73;7.13;;;4.00;57.70;;;;;;5034736;28;20028;-74
2021/03/21 12:37:25;;;;;;;12.02;7.80;;;4.00;58.30;;;;;;5016835;28;20032;-74
2021/03/21 12:40:04;;;;;;;10.95;7.28;;;3.90;58.50;;;;;;5016970;28;20025;-73
2021/03/21 12:42:32;;;;;;;12.27;7.55;;;3.90;58.60;;;;;;5033637;28;20025;-77
2021/03/21 12:45:10;;;;;;;12.38;7.45;;;3.90;58.00;;;;;;5034447;28;20034;-74
2021/03/21 12:47:42;;;;;;;12.65;7.80;;;4.00;57.80;;;;;;5034521;28;20105;-75
2021/03/21 12:50:39;;;;;;;11.80;7.35;;;4.20;57.40;;;;;;5034555;28;20130;-76
2021/03/21 12:53:18;;;;;;;15.57;7.13;;;4.30;57.20;;;;;;5016785;28;20029;-77
2021/03/21 12:55:45;;;;;;;12.57;7.07;;;4.30;56.40;;;;;;5034489;28;20022;-74
2021/03/21 12:58:10;;;;;;;16.85;7.00;;;4.40;56.00;;;;;;5016769;28;20041;-77
2021/03/21 13:00:36;;;;;;;13.20;7.68;;;4.30;55.90;;;;;;5016516;28;20022;-76
2021/03/21 13:03:04;;;;;;;13.30;7.38;;;4.30;56.40;;;;;;5016503;28;20390;-79
2021/03/21 13:05:39;;;;;;;13.25;7.35;;;4.50;56.10;;;;;;5016656;28;20087;-74
2021/03/21 13:08:06;;;;;;;12.00;7.68;;;4.50;55.60;;;;;;5021968;28;20113;-75
2021/03/21 13:10:33;;;;;;;10.07;6.80;;;4.40;56.50;;;;;;4997320;28;20080;-76
2021/03/21 13:13:07;;;;;;;12.63;7.10;;;4.40;55.30;;;;;;5014688;28;20034;-79
2021/03/21 13:15:33;;;;;;;10.43;6.75;;;4.40;55.60;;;;;;4996748;28;20080;-74
2021/03/21 13:17:59;;;;;;;16.65;10.20;;;4.50;55.70;;;;;;4997018;28;20030;-78
2021/03/21 13:20:25;;;;;;;11.18;5.78;;;4.70;55.00;;;;;;4996485;28;20036;-74
2021/03/21 13:22:51;;;;;;;11.15;6.05;;;4.90;54.00;;;;;;5014455;28;20042;-80
2021/03/21 13:25:24;;;;;;;10.63;6.35;;;4.90;53.50;;;;;;4996576;28;20048;-77
2021/03/21 13:27:55;;;;;;;13.65;6.22;;;4.70;54.00;;;;;;4996619;28;20487;-73
2021/03/21 13:30:23;;;;;;;8.63;5.60;;;4.60;54.30;;;;;;5014000;28;20033;-73
2021/03/21 13:32:49;;;;;;;8.65;5.93;;;4.60;54.40;;;;;;4996427;28;20029;-74
2021/03/21 13:35:15;;;;;;;9.68;6.50;;;4.60;54.70;;;;;;5014379;28;20134;-73
2021/03/21 13:37:41;;;;;;;8.10;5.05;;;4.80;54.70;;;;;;4996513;28;20053;-74
2021/03/21 13:40:09;;;;;;;12.75;6.25;;;5.00;55.30;;;;;;4996762;28;20463;-76
2021/03/21 13:42:36;;;;;;;26.05;15.68;;;4.90;55.50;;;;;;4980707;28;20037;-75
2021/03/21 13:45:03;;;;;;;7.05;5.55;;;5.00;54.70;;;;;;4995852;28;20486;-75
2021/03/21 13:47:29;;;;;;;8.35;5.35;;;5.00;54.40;;;;;;4996019;28;20025;-75
2021/03/21 13:49:58;;;;;;;12.98;5.95;;;5.00;54.80;;;;;;5013805;28;20030;-74
2021/03/21 13:52:24;;;;;;;10.43;6.25;;;5.10;55.10;;;;;;5013303;28;20029;-74
2021/03/21 13:54:50;;;;;;;8.98;5.90;;;5.10;55.10;;;;;;4995747;28;20022;-73
2021/03/21 13:57:16;;;;;;;9.95;5.22;;;5.20;55.90;;;;;;5013445;28;20084;-74